Terminal Aerodrome Forecast
Issued by NWS Cleveland, OH

Home | Current Version | Previous Version | Graphics & Text | Print | Product List | Glossary On
Versions: 1 2 3 4 5 6 7 8 9 10 11 12 13 14 15 16 17 18 19
000
FTUS41 KCLE 301543 AAA
TAFTOL
TAF AMD
KTOL 301543Z 3016/3112 21005KT P6SM BKN030
     FM301730 23008KT P6SM BKN050
     FM310000 VRB03KT P6SM SCT250
     FM310800 24002KT 4SM BR SKC=

USA.gov is the U.S. government's official web portal to all federal, state and local government web resources and services.